KSPW/SPW METAR and TAF weather

Enter ICAO airport designator
Station Type Date Time Source
KSPW METAR 2022/06/28 13:53 UTC NOAA

KSPW 281353Z AUTO 19010G21KT 10SM BKN110 22/11 A3012 RMK AO2 SLP193 T02170111


Station Type Date Time Source
KSPW Decoded METAR 2022/06/28 13:53 UTC NOAA

SPENCER MUNICIPAL AIRPORT, IA, United States (KSPW) 43-10N 95-13W 403M
Jun 28, 2022 - 09:53 AM EDT / 2022.06.28 1353 UTC
Wind: from the S (190 degrees) at 12 MPH (10 KT) gusting to 24 MPH (21 KT):0
Visibility: 10 mile(s):0
Sky conditions: mostly cloudy
Temperature: 71.1 F (21.7 C)
Dew Point: 52.0 F (11.1 C)
Relative Humidity: 50%
Pressure (altimeter): 30.12 in. Hg (1019 hPa)
ob: KSPW 281353Z AUTO 19010G21KT 10SM BKN110 22/11 A3012 RMK AO2 SLP193 T02170111
cycle: 14

Station Type Date Time Source
KSPW TAF UTC NOAA

Error!

Example: see airport list